Thunder radar more information blitzortung!


avis per Pluja more information rain snow radar


Visita la nostra xarxa de llocs de meteo:

Template documentation
and downloads

And another site



Rain From: 18-10-2018 10:00 Until: 16:59 warning for: Rain Level: Yellow info button

Pagina Historial Weather Underground text

Diari Resum February 25, 2016 Unitats:  Mètric    Imperial   Tant
« Previous Dia
SegĂźent Dia »
Diari Setmana Mensual Anual Personalitzada
  Maxima: Minima: Media:
Temperatura: -17.8 °C -13.8 °C -9.5 °C
Punt de rosada: -17.8 °C -17.7 °C -15.7 °C
Humitat: Humidity % 38 % 47 %
Wind Speed: 0 km/h 0 km/h 8.2 km/h
RĂ fegues de vent: 0 km/h - -
Vent:- - WSW
Pression baro: 0 hPa 34222.3 hPa -
Precipitacions: 0 mm    
Historical Graphs
 
 
Dades de taula per February 25, 2016
Temps Temperatura Punt de rosada Pression baro Vent Wind Speed RĂ fegues de vent Humitat Rainfall Rate (Hourly)
-17.8 °C -17.8 °C 0 hPa Calm     Humidity % 0 mm
09:45 -7.6 °C -15.1 °C 34256.2 hPa West 7.7 km/h 18.2 km/h 41 % 0 mm
09:55 -7.4 °C -15.1 °C 34256.2 hPa West 5.1 km/h 15.6 km/h 40 % 0 mm
10:05 -7.4 °C -15.1 °C 34256.2 hPa West 7.7 km/h 15.6 km/h 40 % 0 mm
10:15 -7.4 °C -15.1 °C 34256.2 hPa WSW 2.6 km/h 15.6 km/h 40 % 0 mm
10:25 -7.6 °C -15.3 °C 34256.2 hPa WSW 7.7 km/h 10.3 km/h 40 % 0 mm
10:35 -7.5 °C -15.2 °C 34256.2 hPa West 7.7 km/h 18.2 km/h 40 % 0 mm
10:45 -7.3 °C -15.1 °C 34256.2 hPa WSW 5.1 km/h 15.6 km/h 40 % 0 mm
10:55 -7.3 °C -15.2 °C 34222.3 hPa WSW 12.9 km/h 15.6 km/h 39 % 0 mm
11:05 -7.6 °C -15.5 °C 34256.2 hPa WSW 7.7 km/h 10.3 km/h 39 % 0 mm
11:15 -7.6 °C -15.5 °C 34256.2 hPa WSW 5.1 km/h 12.9 km/h 39 % 0 mm
11:25 -7.5 °C -15.4 °C 34256.2 hPa West 12.9 km/h 15.6 km/h 39 % 0 mm
11:35 -7.8 °C -15.9 °C 34256.2 hPa WSW 7.7 km/h 15.6 km/h 38 % 0 mm
11:45 -7.9 °C -15.6 °C 34256.2 hPa WSW 5.1 km/h 12.9 km/h 40 % 0 mm
11:55 -8 °C -15.7 °C 34293.4 hPa WSW 7.7 km/h 7.7 km/h 40 % 0 mm
12:05 -8.2 °C -15.9 °C 34293.4 hPa WSW 7.7 km/h 10.3 km/h 40 % 0 mm
12:15 -8.5 °C -16.1 °C 34293.4 hPa WSW 12.9 km/h 12.9 km/h 40 % 0 mm
12:25 -8.8 °C -16.4 °C 34293.4 hPa WSW 7.7 km/h 12.9 km/h 40 % 0 mm
12:35 -9.2 °C -16.5 °C 34293.4 hPa WSW 7.7 km/h 15.6 km/h 41 % 0 mm
12:43 -8.6 °C -14.4 °C 34327.3 hPa WSW 12.7 km/h 12.7 km/h 50 % 0 mm
12:45 -9.3 °C -16.7 °C 34293.4 hPa WSW 12.9 km/h 18.2 km/h 41 % 0 mm
12:48 -8.6 °C -14.4 °C 34327.3 hPa NNE 6 km/h 6 km/h 50 % 0 mm
12:55 -9.4 °C -16.8 °C 34327.3 hPa WSW 7.7 km/h 15.6 km/h 41 % 0 mm
12:58 -8.6 °C -14.4 °C 34327.3 hPa NE 9 km/h 9 km/h 50 % 0 mm
13:03 -8.7 °C -14.5 °C 34327.3 hPa WSW 12.7 km/h 12.7 km/h 50 % 0 mm
13:08 -8.6 °C -14.4 °C 34327.3 hPa ESE 9 km/h 9 km/h 50 % 0 mm
13:13 -8.2 °C -14.2 °C 34327.3 hPa ENE 9 km/h 9 km/h 49 % 0 mm
13:15 -9.7 °C -16.8 °C 34327.3 hPa WSW 7.7 km/h 10.3 km/h 42 % 0 mm
13:18 -8.2 °C -14.3 °C 34293.4 hPa SSW 14.5 km/h 14.5 km/h 48 % 0 mm
13:23 -8.1 °C -14.5 °C 34293.4 hPa SSW 15 km/h 15 km/h 47 % 0 mm
13:25 -9.9 °C -17 °C 34327.3 hPa WSW 5.1 km/h 10.3 km/h 42 % 0 mm
13:28 -7.9 °C -14.3 °C 34293.4 hPa SW 6.8 km/h 6.8 km/h 47 % 0 mm
13:33 -7.7 °C -14.3 °C 34293.4 hPa NE 9 km/h 9 km/h 46 % 0 mm
13:35 -10 °C -16.9 °C 34293.4 hPa WSW 7.7 km/h 7.7 km/h 43 % 0 mm
13:38 -7.7 °C -14.2 °C 34293.4 hPa WNW 10.3 km/h 11.1 km/h 46 % 0 mm
13:43 -7.8 °C -14.4 °C 34293.4 hPa WSW 15 km/h 15 km/h 46 % 0 mm
13:48 -8.1 °C -14.6 °C 34293.4 hPa WNW 9 km/h 9 km/h 46 % 0 mm
13:53 -8.2 °C -14.8 °C 34293.4 hPa SW 6.8 km/h 6.8 km/h 46 % 0 mm
13:55 -10.2 °C -16.8 °C 34327.3 hPa WSW 12.9 km/h 12.9 km/h 44 % 0 mm
13:58 -8.3 °C -14.8 °C 34293.4 hPa WSW 15 km/h 15 km/h 46 % 0 mm
14:03 -8.5 °C -14.8 °C 34293.4 hPa SW 6.8 km/h 6.8 km/h 47 % 0 mm
14:05 -10.2 °C -16.8 °C 34327.3 hPa WSW 7.7 km/h 12.9 km/h 44 % 0 mm
14:13 -8.4 °C -14.8 °C 34293.4 hPa WSW 15.3 km/h 15.3 km/h 47 % 0 mm
14:15 -10.3 °C -16.8 °C 34327.3 hPa WSW 5.1 km/h 10.3 km/h 45 % 0 mm
14:18 -8.3 °C -15.1 °C 34293.4 hPa SSW 11.9 km/h 11.9 km/h 45 % 0 mm
14:23 -8.4 °C -14.9 °C 34293.4 hPa WNW 15 km/h 15 km/h 46 % 0 mm
14:25 -10.3 °C -16.8 °C 34327.3 hPa WSW 12.9 km/h 12.9 km/h 45 % 0 mm
14:28 -8.2 °C -14.9 °C 34293.4 hPa SSW 15 km/h 15 km/h 45 % 0 mm
14:33 -7.9 °C -14.6 °C 34256.2 hPa SSW 17.9 km/h 17.9 km/h 45 % 0 mm
14:35 -10.3 °C -16.8 °C 34327.3 hPa SW 7.7 km/h 12.9 km/h 45 % 0 mm
14:43 -8.1 °C -15 °C 34256.2 hPa WSW 15 km/h 15 km/h 44 % 0 mm
14:45 -10.4 °C -16.8 °C 34327.3 hPa SW 12.9 km/h 12.9 km/h 46 % 0 mm
14:48 -7.9 °C -14.7 °C 34256.2 hPa SW 6 km/h 6 km/h 45 % 0 mm
14:53 -7.6 °C -14.6 °C 34256.2 hPa North 15.3 km/h 15.3 km/h 44 % 0 mm
14:55 -10.4 °C -16.8 °C 34327.3 hPa SW 5.1 km/h 15.6 km/h 46 % 0 mm
14:58 -7.8 °C -14.8 °C 34256.2 hPa West 15 km/h 15 km/h 44 % 0 mm
15:03 -7.9 °C -14.8 °C 34256.2 hPa WSW 9.3 km/h 9.3 km/h 44 % 0 mm
15:05 -10.6 °C -16.9 °C 34327.3 hPa SW 7.7 km/h 10.3 km/h 46 % 0 mm
15:08 -7.9 °C -14.8 °C 34256.2 hPa WSW 9.3 km/h 9.3 km/h 44 % 0 mm
15:13 -7.9 °C -14.8 °C 34256.2 hPa WSW 9.3 km/h 9.3 km/h 44 % 0 mm
15:15 -10.6 °C -16.7 °C 34327.3 hPa SW 12.9 km/h 15.6 km/h 47 % 0 mm
15:18 -7.9 °C -14.8 °C 34256.2 hPa WSW 9.3 km/h 9.3 km/h 44 % 0 mm
15:23 -7.9 °C -14.8 °C 34256.2 hPa WSW 9.3 km/h 9.3 km/h 44 % 0 mm
15:25 -10.6 °C -16.8 °C 34327.3 hPa SW 15.6 km/h 15.6 km/h 47 % 0 mm
15:33 -7.9 °C -14.8 °C 34256.2 hPa WSW 9.3 km/h 9.3 km/h 44 % 0 mm
15:38 -7.9 °C -14.8 °C 34256.2 hPa WSW 9.3 km/h 9.3 km/h 44 % 0 mm
15:40 -10.7 °C -16.6 °C 34327.3 hPa SW 12.9 km/h 15.6 km/h 48 % 0 mm
15:43 -7.9 °C -14.8 °C 34256.2 hPa WSW 9.3 km/h 9.3 km/h 44 % 0 mm
15:48 -7.9 °C -14.8 °C 34256.2 hPa WSW 9.3 km/h 9.3 km/h 44 % 0 mm
15:53 -7.9 °C -14.8 °C 34256.2 hPa WSW 9.3 km/h 9.3 km/h 44 % 0 mm
15:58 -7.9 °C -14.8 °C 34256.2 hPa WSW 9.3 km/h 9.3 km/h 44 % 0 mm
16:03 -7.9 °C -14.8 °C 34256.2 hPa WSW 9.3 km/h 9.3 km/h 44 % 0 mm
16:08 -7.9 °C -14.8 °C 34256.2 hPa WSW 9.3 km/h 9.3 km/h 44 % 0 mm
16:13 -7.9 °C -14.8 °C 34256.2 hPa WSW 9.3 km/h 9.3 km/h 44 % 0 mm
16:18 -7.9 °C -14.8 °C 34256.2 hPa WSW 9.3 km/h 9.3 km/h 44 % 0 mm
16:23 -7.9 °C -14.8 °C 34256.2 hPa WSW 9.3 km/h 9.3 km/h 44 % 0 mm
16:28 -7.9 °C -14.8 °C 34256.2 hPa WSW 9.3 km/h 9.3 km/h 44 % 0 mm
16:38 -7.9 °C -14.8 °C 34256.2 hPa WSW 9.3 km/h 9.3 km/h 44 % 0 mm
16:43 -7.9 °C -14.8 °C 34256.2 hPa WSW 9.3 km/h 9.3 km/h 44 % 0 mm
16:48 -7.9 °C -14.8 °C 34256.2 hPa WSW 9.3 km/h 9.3 km/h 44 % 0 mm
16:53 -7.9 °C -14.8 °C 34256.2 hPa WSW 9.3 km/h 9.3 km/h 44 % 0 mm
16:58 -7.9 °C -14.8 °C 34256.2 hPa WSW 9.3 km/h 9.3 km/h 44 % 0 mm
17:08 -7.9 °C -14.8 °C 34256.2 hPa WSW 9.3 km/h 9.3 km/h 44 % 0 mm
17:13 -7.9 °C -14.8 °C 34256.2 hPa WSW 9.3 km/h 9.3 km/h 44 % 0 mm
17:18 -7.9 °C -14.8 °C 34256.2 hPa WSW 9.3 km/h 9.3 km/h 44 % 0 mm
17:28 -7.9 °C -14.8 °C 34256.2 hPa WSW 9.3 km/h 9.3 km/h 44 % 0 mm
17:33 -7.9 °C -14.8 °C 34256.2 hPa WSW 9.3 km/h 9.3 km/h 44 % 0 mm
17:38 -7.9 °C -14.8 °C 34256.2 hPa WSW 9.3 km/h 9.3 km/h 44 % 0 mm
17:43 -7.9 °C -14.8 °C 34256.2 hPa WSW 9.3 km/h 9.3 km/h 44 % 0 mm
17:48 -7.9 °C -14.8 °C 34256.2 hPa WSW 9.3 km/h 9.3 km/h 44 % 0 mm
17:53 -7.9 °C -14.8 °C 34256.2 hPa WSW 9.3 km/h 9.3 km/h 44 % 0 mm
17:58 -7.9 °C -14.8 °C 34256.2 hPa WSW 9.3 km/h 9.3 km/h 44 % 0 mm
18:00 -11.6 °C -16.8 °C 34327.3 hPa West 2.6 km/h 5.1 km/h 52 % 0 mm
18:08 -7.9 °C -14.8 °C 34256.2 hPa WSW 9.3 km/h 9.3 km/h 44 % 0 mm
18:10 -11.7 °C -16.9 °C 34327.3 hPa SW 5.1 km/h 5.1 km/h 52 % 0 mm
18:13 -7.9 °C -14.8 °C 34256.2 hPa WSW 9.3 km/h 9.3 km/h 44 % 0 mm
18:20 -11.7 °C -16.8 °C 34361.1 hPa Calm   7.7 km/h 53 % 0 mm
18:23 -7.9 °C -14.8 °C 34256.2 hPa WSW 9.3 km/h 9.3 km/h 44 % 0 mm
18:28 -7.9 °C -14.8 °C 34256.2 hPa WSW 9.3 km/h 9.3 km/h 44 % 0 mm
18:30 -11.8 °C -16.9 °C 34361.1 hPa West 2.6 km/h 10.3 km/h 53 % 0 mm
18:33 -7.9 °C -14.8 °C 34256.2 hPa WSW 9.3 km/h 9.3 km/h 44 % 0 mm
18:38 -7.9 °C -14.8 °C 34256.2 hPa WSW 9.3 km/h 9.3 km/h 44 % 0 mm
18:40 -11.9 °C -17.1 °C 34327.3 hPa NNW 2.6 km/h 7.7 km/h 53 % 0 mm
18:43 -7.9 °C -14.8 °C 34256.2 hPa WSW 9.3 km/h 9.3 km/h 44 % 0 mm
18:48 -7.9 °C -14.8 °C 34256.2 hPa WSW 9.3 km/h 9.3 km/h 44 % 0 mm
18:50 -11.9 °C -16.9 °C 34361.1 hPa NNW 7.7 km/h 7.7 km/h 54 % 0 mm
18:53 -7.9 °C -14.8 °C 34256.2 hPa WSW 9.3 km/h 9.3 km/h 44 % 0 mm
18:58 -7.9 °C -14.8 °C 34256.2 hPa WSW 9.3 km/h 9.3 km/h 44 % 0 mm
19:00 -11.9 °C -17.1 °C 34361.1 hPa NNW 5.1 km/h 7.7 km/h 53 % 0 mm
19:03 -7.9 °C -14.8 °C 34256.2 hPa WSW 9.3 km/h 9.3 km/h 44 % 0 mm
19:08 -7.9 °C -14.8 °C 34256.2 hPa WSW 9.3 km/h 9.3 km/h 44 % 0 mm
19:10 -12 °C -17.1 °C 34327.3 hPa West 2.6 km/h 10.3 km/h 53 % 0 mm
19:13 -7.9 °C -14.8 °C 34256.2 hPa WSW 9.3 km/h 9.3 km/h 44 % 0 mm
19:18 -7.9 °C -14.8 °C 34256.2 hPa WSW 9.3 km/h 9.3 km/h 44 % 0 mm
19:20 -12 °C -16.9 °C 34361.1 hPa Calm   5.1 km/h 54 % 0 mm
19:23 -7.9 °C -14.8 °C 34256.2 hPa WSW 9.3 km/h 9.3 km/h 44 % 0 mm
19:28 -7.9 °C -14.8 °C 34256.2 hPa WSW 9.3 km/h 9.3 km/h 44 % 0 mm
19:30 -12.1 °C -17.1 °C 34361.1 hPa WNW 2.6 km/h 5.1 km/h 54 % 0 mm
19:33 -7.9 °C -14.8 °C 34256.2 hPa WSW 9.3 km/h 9.3 km/h 44 % 0 mm
19:38 -7.9 °C -14.8 °C 34256.2 hPa WSW 9.3 km/h 9.3 km/h 44 % 0 mm
19:40 -12.1 °C -17.1 °C 34327.3 hPa North 7.7 km/h 7.7 km/h 54 % 0 mm
19:43 -7.9 °C -14.8 °C 34256.2 hPa WSW 9.3 km/h 9.3 km/h 44 % 0 mm
19:48 -7.9 °C -14.8 °C 34256.2 hPa WSW 9.3 km/h 9.3 km/h 44 % 0 mm
19:50 -12.2 °C -17.1 °C 34361.1 hPa North 5.1 km/h 7.7 km/h 54 % 0 mm
19:53 -7.9 °C -14.8 °C 34256.2 hPa WSW 9.3 km/h 9.3 km/h 44 % 0 mm
19:58 -7.9 °C -14.8 °C 34256.2 hPa WSW 9.3 km/h 9.3 km/h 44 % 0 mm
20:00 -12.3 °C -17.2 °C 34361.1 hPa West 2.6 km/h 2.6 km/h 54 % 0 mm
20:03 -7.9 °C -14.8 °C 34256.2 hPa WSW 9.3 km/h 9.3 km/h 44 % 0 mm
20:08 -7.9 °C -14.8 °C 34256.2 hPa WSW 9.3 km/h 9.3 km/h 44 % 0 mm
20:10 -12.4 °C -17.3 °C 34361.1 hPa West 2.6 km/h 5.1 km/h 54 % 0 mm
20:13 -7.9 °C -14.8 °C 34256.2 hPa WSW 9.3 km/h 9.3 km/h 44 % 0 mm
20:18 -7.9 °C -14.8 °C 34256.2 hPa WSW 9.3 km/h 9.3 km/h 44 % 0 mm
20:20 -12.4 °C -17.4 °C 34327.3 hPa NNW 2.6 km/h 7.7 km/h 54 % 0 mm
20:23 -7.9 °C -14.8 °C 34256.2 hPa WSW 9.3 km/h 9.3 km/h 44 % 0 mm
20:30 -12.6 °C -17.3 °C 34327.3 hPa Calm   7.7 km/h 55 % 0 mm
20:33 -7.9 °C -14.8 °C 34256.2 hPa WSW 9.3 km/h 9.3 km/h 44 % 0 mm
20:38 -7.9 °C -14.8 °C 34256.2 hPa WSW 9.3 km/h 9.3 km/h 44 % 0 mm
20:40 -12.6 °C -17.3 °C 34327.3 hPa North 2.6 km/h 10.3 km/h 55 % 0 mm
20:43 -7.9 °C -14.8 °C 34256.2 hPa WSW 9.3 km/h 9.3 km/h 44 % 0 mm
20:48 -7.9 °C -14.8 °C 34256.2 hPa WSW 9.3 km/h 9.3 km/h 44 % 0 mm
20:50 -12.7 °C -17.4 °C 34327.3 hPa North 5.1 km/h 10.3 km/h 55 % 0 mm
20:53 -7.9 °C -14.8 °C 34256.2 hPa WSW 9.3 km/h 9.3 km/h 44 % 0 mm
20:58 -7.9 °C -14.8 °C 34256.2 hPa WSW 9.3 km/h 9.3 km/h 44 % 0 mm
21:00 -12.8 °C -17.4 °C 34327.3 hPa NW 2.6 km/h 7.7 km/h 56 % 0 mm
21:03 -7.9 °C -14.8 °C 34256.2 hPa WSW 9.3 km/h 9.3 km/h 44 % 0 mm
21:08 -7.9 °C -14.8 °C 34256.2 hPa WSW 9.3 km/h 9.3 km/h 44 % 0 mm
21:10 -12.9 °C -17.4 °C 34327.3 hPa West 2.6 km/h 7.7 km/h 57 % 0 mm
21:13 -7.9 °C -14.8 °C 34256.2 hPa WSW 9.3 km/h 9.3 km/h 44 % 0 mm
21:18 -7.9 °C -14.8 °C 34256.2 hPa WSW 9.3 km/h 9.3 km/h 44 % 0 mm
21:20 -13 °C -17.4 °C 34327.3 hPa West 2.6 km/h 7.7 km/h 57 % 0 mm
21:23 -7.9 °C -14.8 °C 34256.2 hPa WSW 9.3 km/h 9.3 km/h 44 % 0 mm
21:28 -7.9 °C -14.8 °C 34256.2 hPa WSW 9.3 km/h 9.3 km/h 44 % 0 mm
21:30 -13.1 °C -17.6 °C 34327.3 hPa WSW 7.7 km/h 7.7 km/h 57 % 0 mm
21:33 -7.9 °C -14.8 °C 34256.2 hPa WSW 9.3 km/h 9.3 km/h 44 % 0 mm
21:38 -7.9 °C -14.8 °C 34256.2 hPa North 9 km/h   44 % 0 mm
21:40 -13.3 °C -17.7 °C 34327.3 hPa Calm   5.1 km/h 58 % 0 mm
21:43 -10.7 °C -16.6 °C 34327.3 hPa WSW 15 km/h 15 km/h 49 % 0 mm
21:48 -10.8 °C -16.6 °C 34327.3 hPa SW 9 km/h 9 km/h 49 % 0 mm
21:50 -13.4 °C -17.6 °C 34293.4 hPa Calm     59 % 0 mm
21:53 -10.8 °C -16.6 °C 34327.3 hPa WSW 9 km/h 9 km/h 49 % 0 mm
21:58 -10.8 °C -16.6 °C 34327.3 hPa WSW 9 km/h 9 km/h 49 % 0 mm
22:00 -13.6 °C -17.7 °C 34293.4 hPa WSW 2.6 km/h 5.1 km/h 59 % 0 mm
22:03 -10.9 °C -16.5 °C 34327.3 hPa West 11.9 km/h 11.9 km/h 50 % 0 mm
22:08 -10.9 °C -16.6 °C 34327.3 hPa WSW 10.3 km/h 10.3 km/h 50 % 0 mm
22:10 -13.6 °C -17.6 °C 34327.3 hPa Calm   2.6 km/h 60 % 0 mm
22:18 -10.9 °C -16.6 °C 34361.1 hPa WSW 11.9 km/h 11.9 km/h 50 % 0 mm
22:20 -13.6 °C -17.7 °C 34327.3 hPa Calm   2.6 km/h 60 % 0 mm
22:23 -11 °C -16.6 °C 34361.1 hPa SSW 9 km/h 9 km/h 50 % 0 mm
22:28 -11.1 °C -16.7 °C 34361.1 hPa WSW 6 km/h 6.3 km/h 50 % 0 mm
22:30 -13.7 °C -17.7 °C 34327.3 hPa Calm   5.1 km/h 60 % 0 mm
22:33 -11.1 °C -16.5 °C 34361.1 hPa WSW 14.5 km/h 14.5 km/h 51 % 0 mm
22:40 -13.7 °C -17.7 °C 34327.3 hPa Calm   5.1 km/h 60 % 0 mm
22:43 -11.1 °C -16.5 °C 34361.1 hPa SW 11.9 km/h 11.9 km/h 51 % 0 mm
22:48 -11.1 °C -16.5 °C 34361.1 hPa WSW 12.7 km/h 12.7 km/h 51 % 0 mm
22:50 -13.8 °C -17.7 °C 34327.3 hPa WSW 2.6 km/h 5.1 km/h 61 % 0 mm
22:53 -11.1 °C -16.5 °C 34361.1 hPa WSW 15 km/h 15 km/h 51 % 0 mm
22:58 -11.1 °C -16.6 °C 34361.1 hPa West 11.9 km/h 11.9 km/h 51 % 0 mm
23:00 -13.8 °C -17.7 °C 34327.3 hPa Calm     61 % 0 mm
23:03 -11.1 °C -16.6 °C 34361.1 hPa West 9 km/h 9 km/h 51 % 0 mm
23:08 -11.1 °C -16.4 °C 34361.1 hPa SSW 11.9 km/h 11.9 km/h 52 % 0 mm
23:10 -13.8 °C -17.7 °C 34327.3 hPa WSW 2.6 km/h 5.1 km/h 61 % 0 mm
23:13 -11.2 °C -16.5 °C 34361.1 hPa West 11.9 km/h 11.9 km/h 52 % 0 mm
23:18 -11.2 °C -16.5 °C 34361.1 hPa WNW 9.8 km/h 9.8 km/h 52 % 0 mm
23:20 -13.8 °C -17.7 °C 34327.3 hPa Calm   2.6 km/h 61 % 0 mm
23:23 -11.3 °C -16.6 °C 34361.1 hPa WSW 8.5 km/h 8.5 km/h 52 % 0 mm
23:30 -13.7 °C -17.6 °C 34327.3 hPa Calm   5.1 km/h 61 % 0 mm
23:33 -11.3 °C -16.6 °C 34327.3 hPa WSW 6 km/h 6 km/h 52 % 0 mm
23:38 -11.4 °C -16.7 °C 34327.3 hPa NNW 9 km/h 9 km/h 52 % 0 mm
23:40 -13.8 °C -17.7 °C 34327.3 hPa Calm   5.1 km/h 61 % 0 mm
23:43 -11.4 °C -16.7 °C 34327.3 hPa West 7.6 km/h 7.6 km/h 52 % 0 mm
23:48 -11.4 °C -16.7 °C 34327.3 hPa NNW 4.2 km/h   52 % 0 mm
23:50 -13.7 °C -17.6 °C 34327.3 hPa East 5.1 km/h 5.1 km/h 61 % 0 mm
Meteo Sesrovires
Elogis d' Weather Underground - 1.5 mb

Guio original per  Jim McMurry - jmcmurry@mwt.net Adaptat per a la plantilla per  Wim van der Kuil - Leuven-Template.eu

Trobareu la nostra informacio del temps tambe a:

Weather Underground

AWEKAS